createdAt,value
2018-09-27T00:00:58.722Z,6.87
2018-09-27T00:03:27.269Z,6.96
2018-09-27T00:05:55.850Z,6.94
2018-09-27T00:08:24.394Z,7.00
2018-09-27T00:10:52.965Z,6.97
2018-09-27T00:13:21.522Z,7.03
2018-09-27T00:15:50.221Z,6.91
2018-09-27T00:18:18.771Z,6.90
2018-09-27T00:20:47.353Z,6.90
2018-09-27T00:23:15.910Z,6.77
2018-09-27T00:25:44.486Z,6.80
2018-09-27T00:28:13.030Z,6.82
2018-09-27T00:30:41.602Z,6.71
2018-09-27T00:33:10.170Z,6.70
2018-09-27T00:35:38.733Z,6.63
2018-09-27T00:38:07.291Z,6.60
2018-09-27T00:40:35.875Z,6.63
2018-09-27T00:43:04.521Z,6.61
2018-09-27T00:45:33.073Z,6.55
2018-09-27T00:48:01.636Z,6.60
2018-09-27T00:50:30.206Z,6.60
2018-09-27T00:52:58.777Z,6.59
2018-09-27T00:55:27.326Z,6.52
2018-09-27T00:57:55.868Z,6.50
2018-09-27T01:00:24.481Z,6.46
2018-09-27T01:02:53.053Z,6.47
2018-09-27T01:05:21.737Z,6.52
2018-09-27T01:07:50.288Z,6.65
2018-09-27T01:10:18.870Z,6.62
2018-09-27T01:12:47.426Z,6.48
2018-09-27T01:15:16.006Z,6.53
2018-09-27T01:17:44.554Z,6.56
2018-09-27T01:20:13.139Z,6.52
2018-09-27T01:22:41.704Z,6.48
2018-09-27T01:25:10.578Z,6.46
2018-09-27T01:27:39.139Z,6.40
2018-09-27T01:30:08.114Z,6.31
2018-09-27T01:32:36.666Z,6.30
2018-09-27T01:35:05.298Z,6.35
2018-09-27T01:37:33.875Z,6.21
2018-09-27T01:40:04.246Z,6.38
2018-09-27T01:42:32.824Z,6.27
2018-09-27T01:45:01.397Z,6.38
2018-09-27T01:47:29.942Z,6.30
2018-09-27T01:49:58.502Z,6.20
2018-09-27T01:52:27.669Z,6.39
2018-09-27T01:54:56.394Z,6.35
2018-09-27T01:57:24.953Z,6.23
2018-09-27T01:59:53.512Z,6.32
2018-09-27T02:02:22.083Z,6.21
2018-09-27T02:04:50.662Z,6.22
2018-09-27T02:07:19.213Z,6.15
2018-09-27T02:09:47.766Z,6.11
2018-09-27T02:12:16.338Z,6.07
2018-09-27T02:14:44.889Z,6.00
2018-09-27T02:17:13.462Z,6.02
2018-09-27T02:19:42.093Z,5.95
2018-09-27T02:22:10.678Z,6.05
2018-09-27T02:24:39.234Z,6.04
2018-09-27T02:27:07.838Z,6.03
2018-09-27T02:29:36.369Z,5.90
2018-09-27T02:32:04.943Z,6.09
2018-09-27T02:34:33.506Z,6.05
2018-09-27T02:37:02.380Z,5.95
2018-09-27T02:39:30.922Z,5.90
2018-09-27T02:41:59.489Z,5.92
2018-09-27T02:44:28.021Z,5.90
2018-09-27T02:46:56.622Z,5.84
2018-09-27T02:49:25.164Z,5.85
2018-09-27T02:51:53.739Z,5.83
2018-09-27T02:54:22.293Z,5.80
2018-09-27T02:56:50.858Z,5.87
2018-09-27T02:59:20.037Z,5.81
2018-09-27T03:01:48.630Z,5.81
2018-09-27T03:04:17.189Z,5.80
2018-09-27T03:06:45.758Z,5.71
2018-09-27T03:09:14.322Z,5.79
2018-09-27T03:11:43.241Z,5.87
2018-09-27T03:14:11.795Z,5.77
2018-09-27T03:16:40.366Z,5.70
2018-09-27T03:19:08.900Z,5.72
2018-09-27T03:21:37.496Z,5.68
2018-09-27T03:24:06.062Z,5.66
2018-09-27T03:26:34.635Z,5.75
2018-09-27T03:29:03.202Z,5.68
2018-09-27T03:31:31.991Z,5.70
2018-09-27T03:34:00.599Z,5.83
2018-09-27T03:36:29.187Z,5.71
2018-09-27T03:38:57.721Z,5.73
2018-09-27T03:41:26.546Z,5.63
2018-09-27T03:43:55.105Z,5.67
2018-09-27T03:46:23.691Z,5.64
2018-09-27T03:48:52.253Z,5.65
2018-09-27T03:51:20.816Z,5.58
2018-09-27T03:53:49.365Z,5.50
2018-09-27T03:56:17.927Z,5.48
2018-09-27T03:58:46.477Z,5.59
2018-09-27T04:01:15.958Z,5.58
2018-09-27T04:03:44.506Z,5.55
2018-09-27T04:06:13.082Z,5.50
2018-09-27T04:08:41.620Z,5.49
2018-09-27T04:11:10.196Z,5.57
2018-09-27T04:13:38.745Z,5.48
2018-09-27T04:16:07.432Z,5.57
2018-09-27T04:18:36.835Z,5.61
2018-09-27T04:21:05.439Z,5.55
2018-09-27T04:23:33.989Z,5.56
2018-09-27T04:26:02.549Z,5.47
2018-09-27T04:28:31.094Z,5.46
2018-09-27T04:30:59.882Z,5.40
2018-09-27T04:33:28.445Z,5.34
2018-09-27T04:36:02.266Z,5.35
2018-09-27T04:38:30.850Z,5.49
2018-09-27T04:41:00.385Z,5.41
2018-09-27T04:43:28.929Z,5.42
2018-09-27T04:45:57.600Z,5.48
2018-09-27T04:48:26.082Z,5.48
2018-09-27T04:50:54.699Z,5.46
2018-09-27T04:53:23.272Z,5.34
2018-09-27T04:55:51.796Z,5.34
2018-09-27T04:58:20.354Z,5.36
2018-09-27T05:00:48.959Z,5.24
2018-09-27T05:03:17.550Z,5.15
2018-09-27T05:05:46.093Z,5.16
2018-09-27T05:08:14.665Z,5.31
2018-09-27T05:10:43.226Z,5.24
2018-09-27T05:13:11.793Z,5.19
2018-09-27T05:15:40.591Z,5.36
2018-09-27T05:18:09.757Z,5.31
2018-09-27T05:20:38.338Z,5.28
2018-09-27T05:23:06.893Z,5.25
2018-09-27T05:25:35.442Z,5.35
2018-09-27T05:28:04.045Z,5.36
2018-09-27T05:30:32.597Z,5.45
2018-09-27T05:33:01.181Z,5.50
2018-09-27T05:35:29.738Z,5.50
2018-09-27T05:37:58.476Z,5.55
2018-09-27T05:40:27.029Z,5.55
2018-09-27T05:42:55.611Z,5.65
2018-09-27T05:45:24.197Z,5.57
2018-09-27T05:47:52.754Z,5.65
2018-09-27T05:50:21.318Z,5.61
2018-09-27T05:52:50.054Z,5.69
2018-09-27T05:55:18.618Z,5.81
2018-09-27T05:57:47.195Z,5.82
2018-09-27T06:00:15.782Z,5.82
2018-09-27T06:02:44.363Z,5.86
2018-09-27T06:05:12.926Z,6.00
2018-09-27T06:07:41.759Z,6.05
2018-09-27T06:10:10.310Z,6.01
2018-09-27T06:12:38.902Z,6.06
2018-09-27T06:15:07.544Z,6.12
2018-09-27T06:17:36.089Z,6.14
2018-09-27T06:20:04.717Z,6.29
2018-09-27T06:22:33.257Z,6.38
2018-09-27T06:25:01.863Z,6.48
2018-09-27T06:27:30.476Z,6.63
2018-09-27T06:29:59.054Z,7.15
2018-09-27T06:32:27.618Z,8.67
2018-09-27T06:34:56.280Z,11.28
2018-09-27T06:37:24.764Z,14.98
2018-09-27T06:39:53.674Z,16.37
2018-09-27T06:42:22.272Z,17.76
2018-09-27T06:44:50.859Z,18.42
2018-09-27T06:47:19.411Z,19.81
2018-09-27T06:49:48.034Z,21.07
2018-09-27T06:52:16.614Z,18.70
2018-09-27T06:54:45.267Z,18.97
2018-09-27T06:57:13.763Z,20.40
2018-09-27T06:59:42.349Z,22.06
2018-09-27T07:02:10.898Z,22.77
2018-09-27T07:04:39.504Z,23.70
2018-09-27T07:07:08.147Z,24.88
2018-09-27T07:09:36.739Z,25.02
2018-09-27T07:12:05.465Z,25.03
2018-09-27T07:14:34.220Z,24.09
2018-09-27T07:17:02.778Z,24.57
2018-09-27T07:19:31.342Z,25.32
2018-09-27T07:21:59.877Z,26.92
2018-09-27T07:24:28.820Z,28.54
2018-09-27T07:26:57.468Z,29.44
2018-09-27T07:29:26.182Z,27.70
2018-09-27T07:31:54.740Z,27.87
2018-09-27T07:34:23.330Z,29.05
2018-09-27T07:36:51.893Z,28.89
2018-09-27T07:39:20.509Z,29.13
2018-09-27T07:41:49.057Z,30.62
2018-09-27T07:44:17.643Z,30.40
2018-09-27T07:46:46.182Z,31.58
2018-09-27T07:49:14.758Z,31.66
2018-09-27T07:51:43.323Z,32.96
2018-09-27T07:54:11.924Z,33.52
2018-09-27T07:56:40.575Z,32.87
2018-09-27T07:59:09.134Z,33.73
2018-09-27T08:01:37.738Z,32.78
2018-09-27T08:04:06.321Z,33.72
2018-09-27T08:06:34.870Z,35.69
2018-09-27T08:09:03.923Z,35.31
2018-09-27T08:11:32.564Z,36.58
2018-09-27T08:14:01.552Z,37.01
2018-09-27T08:16:30.137Z,36.89
2018-09-27T08:18:59.770Z,38.01
2018-09-27T08:22:30.973Z,37.36
2018-09-27T08:24:59.542Z,37.92
2018-09-27T08:27:28.165Z,35.56
2018-09-27T08:29:57.142Z,35.62
2018-09-27T08:32:25.750Z,33.33
2018-09-27T08:34:57.017Z,35.97
2018-09-27T08:37:26.477Z,35.59
2018-09-27T08:39:55.066Z,34.04
2018-09-27T08:42:23.643Z,37.01
2018-09-27T08:44:52.793Z,36.03
2018-09-27T08:47:21.187Z,35.18
2018-09-27T08:49:49.786Z,34.78
2018-09-27T08:52:18.373Z,30.39
2018-09-27T08:54:47.474Z,32.58
2018-09-27T08:57:16.309Z,32.55
2018-09-27T08:59:44.902Z,31.63
2018-09-27T09:02:13.757Z,30.97
2018-09-27T09:04:42.562Z,30.96
2018-09-27T09:07:11.158Z,30.65
2018-09-27T09:09:39.758Z,33.14
2018-09-27T09:12:08.838Z,32.39
2018-09-27T09:14:37.443Z,29.52
2018-09-27T09:17:06.453Z,31.88
2018-09-27T09:19:35.083Z,33.63
2018-09-27T09:22:03.635Z,30.83
2018-09-27T09:24:32.236Z,29.32
2018-09-27T09:27:00.814Z,32.84
2018-09-27T09:29:29.526Z,30.51
2018-09-27T09:31:58.037Z,30.18
2018-09-27T09:34:26.669Z,29.43
2018-09-27T09:36:55.229Z,31.11
2018-09-27T09:39:23.918Z,32.32
2018-09-27T09:41:52.494Z,35.26
2018-09-27T09:44:21.075Z,34.87
2018-09-27T09:46:49.697Z,33.41
2018-09-27T09:49:18.257Z,30.94
2018-09-27T09:51:47.426Z,30.21
2018-09-27T09:54:16.989Z,33.65
2018-09-27T09:56:45.590Z,32.64
2018-09-27T09:59:14.446Z,30.04
2018-09-27T10:01:43.029Z,29.92
2018-09-27T10:04:11.577Z,29.87
2018-09-27T10:06:40.424Z,30.41
2018-09-27T10:09:10.479Z,33.54
2018-09-27T10:11:39.178Z,36.11
2018-09-27T10:14:08.141Z,31.96
2018-09-27T10:16:37.482Z,32.28
2018-09-27T10:19:06.100Z,33.87
2018-09-27T10:21:35.092Z,32.95
2018-09-27T10:24:04.207Z,32.40
2018-09-27T10:26:32.986Z,30.02
2018-09-27T10:29:01.563Z,34.05
2018-09-27T10:31:30.154Z,35.10
2018-09-27T10:33:58.969Z,35.74
2018-09-27T10:36:27.906Z,36.67
2018-09-27T10:38:56.470Z,35.09
2018-09-27T10:41:25.046Z,37.25
2018-09-27T10:43:53.849Z,33.71
2018-09-27T10:46:22.832Z,35.45
2018-09-27T10:48:51.397Z,32.68
2018-09-27T10:51:20.085Z,33.52
2018-09-27T10:53:48.967Z,34.20
2018-09-27T10:56:17.560Z,36.90
2018-09-27T10:58:46.134Z,35.29
2018-09-27T11:01:15.681Z,33.35
2018-09-27T11:03:44.245Z,34.17
2018-09-27T11:06:13.834Z,37.89
2018-09-27T11:08:42.717Z,39.18
2018-09-27T11:11:11.396Z,36.89
2018-09-27T11:13:39.891Z,32.84
2018-09-27T11:16:09.216Z,33.33
2018-09-27T11:18:37.793Z,34.09
2018-09-27T11:21:06.417Z,35.21
2018-09-27T11:23:35.276Z,40.51
2018-09-27T11:26:04.695Z,40.89
2018-09-27T11:28:38.458Z,40.27
2018-09-27T11:31:12.275Z,40.53
2018-09-27T11:33:40.924Z,38.15
2018-09-27T11:36:09.512Z,36.94
2018-09-27T11:38:38.232Z,38.26
2018-09-27T11:41:06.833Z,38.63
2018-09-27T11:43:36.593Z,36.73
2018-09-27T11:46:05.175Z,33.21
2018-09-27T11:48:34.068Z,37.43
2018-09-27T11:51:02.730Z,35.43
2018-09-27T11:53:31.326Z,36.32
2018-09-27T11:55:59.970Z,35.21
2018-09-27T11:58:28.686Z,35.85
2018-09-27T12:00:57.847Z,37.59
2018-09-27T12:03:26.563Z,35.49
2018-09-27T12:05:55.114Z,34.56
2018-09-27T12:08:23.807Z,34.60
2018-09-27T12:10:52.769Z,33.91
2018-09-27T12:13:21.414Z,36.96
2018-09-27T12:15:49.934Z,36.73
2018-09-27T12:18:18.636Z,36.96
2018-09-27T12:20:47.934Z,38.10
2018-09-27T12:23:16.505Z,35.58
2018-09-27T12:25:45.688Z,34.88
2018-09-27T12:28:15.123Z,35.01
2018-09-27T12:30:43.677Z,38.30
2018-09-27T12:33:12.715Z,40.41
2018-09-27T12:35:41.665Z,40.66
2018-09-27T12:38:10.362Z,34.27
2018-09-27T12:40:39.154Z,34.02
2018-09-27T12:43:08.300Z,35.80
2018-09-27T12:45:37.686Z,33.72
2018-09-27T12:48:06.356Z,35.42
2018-09-27T12:50:34.931Z,36.64
2018-09-27T12:53:03.585Z,36.04
2018-09-27T12:55:32.111Z,35.15
2018-09-27T12:58:00.751Z,34.85
2018-09-27T13:00:29.314Z,35.65
2018-09-27T13:02:58.017Z,38.04
2018-09-27T13:05:26.546Z,37.58
2018-09-27T13:07:56.097Z,37.58
2018-09-27T13:10:25.292Z,36.13
2018-09-27T13:12:54.170Z,31.69
2018-09-27T13:15:22.943Z,34.24
2018-09-27T13:17:51.551Z,35.55
2018-09-27T13:20:20.422Z,34.77
2018-09-27T13:22:49.017Z,33.78
2018-09-27T13:25:17.551Z,34.88
2018-09-27T13:27:46.137Z,32.21
2018-09-27T13:30:14.703Z,34.07
2018-09-27T13:32:45.442Z,31.28
2018-09-27T13:35:14.881Z,32.49
2018-09-27T13:37:43.465Z,34.00
2018-09-27T13:40:12.122Z,34.71
2018-09-27T13:42:40.697Z,36.19
2018-09-27T13:45:09.338Z,34.96
2018-09-27T13:47:37.886Z,37.82
2018-09-27T13:50:06.830Z,36.74
2018-09-27T13:52:35.393Z,36.63
2018-09-27T13:55:04.470Z,35.37
2018-09-27T13:57:33.019Z,35.03
2018-09-27T14:00:02.895Z,34.82
2018-09-27T14:02:31.451Z,35.64
2018-09-27T14:05:00.105Z,36.81
2018-09-27T14:07:28.669Z,32.48
2018-09-27T14:09:59.958Z,34.97
2018-09-27T14:12:28.501Z,34.35
2018-09-27T14:14:57.109Z,34.66
2018-09-27T14:17:25.926Z,31.66
2018-09-27T14:19:54.663Z,32.69
2018-09-27T14:22:23.222Z,32.86
2018-09-27T14:24:51.902Z,33.89
2018-09-27T14:27:21.014Z,32.23
2018-09-27T14:29:49.998Z,30.58
2018-09-27T14:32:18.594Z,32.61
2018-09-27T14:34:47.141Z,34.05
2018-09-27T14:37:15.701Z,32.28
2018-09-27T14:39:44.647Z,33.36
2018-09-27T14:42:13.219Z,31.58
2018-09-27T14:44:41.801Z,32.83
2018-09-27T14:47:10.394Z,32.09
2018-09-27T14:49:38.982Z,29.83
2018-09-27T14:52:07.590Z,30.46
2018-09-27T14:54:36.585Z,30.02
2018-09-27T14:57:05.154Z,29.84
2018-09-27T14:59:33.793Z,29.59
2018-09-27T15:02:02.410Z,31.59
2018-09-27T15:04:31.002Z,31.42
2018-09-27T15:06:59.534Z,30.73
2018-09-27T15:09:28.147Z,29.60
2018-09-27T15:11:56.690Z,29.25
2018-09-27T15:14:28.465Z,30.65
2018-09-27T15:16:58.302Z,28.24
2018-09-27T15:19:26.870Z,28.93
2018-09-27T15:21:55.413Z,29.98
2018-09-27T15:24:24.011Z,30.29
2018-09-27T15:26:52.559Z,29.95
2018-09-27T15:29:21.146Z,31.31
2018-09-27T15:31:49.719Z,29.50
2018-09-27T15:34:18.392Z,27.55
2018-09-27T15:36:46.992Z,26.87
2018-09-27T15:39:15.542Z,28.32
2018-09-27T15:41:44.165Z,27.02
2018-09-27T15:44:12.741Z,27.18
2018-09-27T15:46:41.330Z,27.03
2018-09-27T15:49:09.885Z,26.92
2018-09-27T15:51:38.460Z,25.43
2018-09-27T15:54:07.001Z,25.94
2018-09-27T15:56:35.594Z,25.62
2018-09-27T15:59:04.146Z,26.47
2018-09-27T16:01:32.738Z,25.43
2018-09-27T16:04:01.383Z,24.66
2018-09-27T16:06:29.910Z,24.12
2018-09-27T16:08:58.444Z,24.51
2018-09-27T16:11:27.078Z,24.30
2018-09-27T16:13:55.646Z,24.76
2018-09-27T16:16:24.229Z,24.68
2018-09-27T16:18:52.870Z,23.78
2018-09-27T16:21:21.458Z,23.70
2018-09-27T16:23:50.015Z,23.31
2018-09-27T16:26:18.597Z,23.53
2018-09-27T16:28:47.170Z,23.35
2018-09-27T16:31:15.769Z,23.32
2018-09-27T16:33:44.321Z,22.90
2018-09-27T16:36:12.911Z,22.90
2018-09-27T16:38:41.685Z,22.91
2018-09-27T16:41:10.418Z,22.82
2018-09-27T16:43:39.406Z,22.50
2018-09-27T16:46:08.023Z,22.54
2018-09-27T16:48:37.009Z,22.36
2018-09-27T16:51:05.721Z,22.04
2018-09-27T16:53:34.306Z,21.79
2018-09-27T16:56:02.905Z,21.23
2018-09-27T16:58:31.471Z,20.81
2018-09-27T17:01:00.457Z,20.70
2018-09-27T17:03:29.003Z,20.57
2018-09-27T17:05:57.607Z,20.40
2018-09-27T17:08:26.158Z,20.14
2018-09-27T17:10:54.765Z,20.00
2018-09-27T17:13:23.310Z,19.73
2018-09-27T17:15:51.889Z,19.45
2018-09-27T17:18:20.442Z,19.24
2018-09-27T17:20:49.039Z,19.01
2018-09-27T17:23:17.590Z,18.78
2018-09-27T17:25:46.177Z,18.60
2018-09-27T17:28:14.734Z,18.33
2018-09-27T17:30:43.326Z,18.09
2018-09-27T17:33:12.020Z,17.87
2018-09-27T17:35:40.506Z,17.76
2018-09-27T17:38:09.080Z,17.66
2018-09-27T17:40:37.716Z,17.30
2018-09-27T17:43:06.230Z,17.06
2018-09-27T17:45:34.813Z,16.99
2018-09-27T17:48:03.345Z,16.67
2018-09-27T17:50:31.930Z,16.40
2018-09-27T17:53:00.490Z,16.41
2018-09-27T17:55:29.132Z,16.35
2018-09-27T17:57:57.701Z,16.20
2018-09-27T18:00:26.297Z,16.04
2018-09-27T18:02:54.858Z,15.94
2018-09-27T18:05:23.421Z,15.92
2018-09-27T18:07:51.983Z,15.89
2018-09-27T18:10:20.565Z,15.71
2018-09-27T18:12:49.126Z,15.62
2018-09-27T18:15:17.706Z,15.53
2018-09-27T18:17:46.267Z,15.48
2018-09-27T18:20:14.870Z,15.36
2018-09-27T18:22:43.509Z,15.16
2018-09-27T18:25:12.454Z,14.89
2018-09-27T18:27:41.006Z,14.97
2018-09-27T18:30:09.900Z,14.90
2018-09-27T18:32:38.481Z,14.78
2018-09-27T18:35:07.092Z,14.64
2018-09-27T18:37:35.751Z,14.57
2018-09-27T18:40:04.360Z,14.47
2018-09-27T18:42:32.923Z,14.51
2018-09-27T18:45:01.477Z,14.45
2018-09-27T18:47:30.072Z,14.31
2018-09-27T18:49:58.651Z,14.16
2018-09-27T18:52:27.253Z,14.05
2018-09-27T18:54:55.834Z,13.88
2018-09-27T18:57:24.448Z,13.87
2018-09-27T18:59:52.998Z,13.88
2018-09-27T19:02:21.590Z,13.71
2018-09-27T19:04:50.142Z,13.79
2018-09-27T19:07:18.766Z,13.78
2018-09-27T19:09:47.325Z,13.59
2018-09-27T19:12:15.912Z,13.48
2018-09-27T19:14:44.458Z,13.67
2018-09-27T19:17:13.232Z,13.47
2018-09-27T19:19:41.622Z,13.22
2018-09-27T19:22:10.198Z,13.06
2018-09-27T19:24:38.739Z,13.20
2018-09-27T19:27:07.358Z,12.95
2018-09-27T19:29:35.910Z,12.85
2018-09-27T19:32:04.507Z,12.77
2018-09-27T19:34:33.042Z,12.76
2018-09-27T19:37:01.651Z,12.72
2018-09-27T19:39:30.178Z,12.71
2018-09-27T19:41:59.151Z,12.76
2018-09-27T19:44:27.689Z,12.69
2018-09-27T19:46:56.287Z,12.47
2018-09-27T19:49:24.842Z,12.32
2018-09-27T19:51:53.745Z,12.41
2018-09-27T19:54:22.318Z,12.52
2018-09-27T19:56:50.902Z,12.30
2018-09-27T19:59:19.474Z,12.20
2018-09-27T20:01:48.073Z,12.26
2018-09-27T20:04:16.947Z,12.17
2018-09-27T20:06:45.478Z,12.13
2018-09-27T20:09:14.857Z,12.16
2018-09-27T20:11:43.890Z,12.05
2018-09-27T20:14:12.781Z,12.07
2018-09-27T20:16:41.642Z,12.04
2018-09-27T20:19:10.426Z,12.10
2018-09-27T20:21:39.922Z,12.03
2018-09-27T20:24:08.746Z,11.98
2018-09-27T20:26:46.316Z,11.93
2018-09-27T20:29:14.936Z,11.96
2018-09-27T20:31:53.857Z,11.87
2018-09-27T20:34:28.224Z,11.84
2018-09-27T20:36:57.784Z,11.77
2018-09-27T20:39:27.225Z,11.65
2018-09-27T20:41:56.010Z,11.81
2018-09-27T20:44:24.630Z,11.86
2018-09-27T20:46:53.212Z,11.54
2018-09-27T20:49:21.947Z,11.55
2018-09-27T20:51:51.762Z,11.42
2018-09-27T20:54:21.822Z,11.58
2018-09-27T20:56:51.574Z,11.59
2018-09-27T20:59:21.389Z,11.59
2018-09-27T21:01:50.833Z,11.57
2018-09-27T21:04:21.777Z,11.54
2018-09-27T21:06:51.501Z,11.43
2018-09-27T21:09:21.822Z,11.41
2018-09-27T21:11:54.973Z,11.40
2018-09-27T21:14:23.493Z,11.35
2018-09-27T21:16:52.037Z,11.39
2018-09-27T21:19:22.575Z,11.32
2018-09-27T21:21:51.955Z,11.35
2018-09-27T21:24:20.578Z,11.38
2018-09-27T21:26:49.138Z,11.61
2018-09-27T21:29:17.657Z,11.64
2018-09-27T21:31:46.203Z,11.51
2018-09-27T21:34:14.734Z,11.46
2018-09-27T21:36:43.283Z,11.39
2018-09-27T21:39:11.801Z,11.34
2018-09-27T21:41:40.738Z,11.48
2018-09-27T21:44:09.785Z,11.36
2018-09-27T21:46:38.820Z,11.44
2018-09-27T21:49:07.389Z,11.38
2018-09-27T21:51:35.914Z,11.56
2018-09-27T21:54:04.453Z,11.46
2018-09-27T21:56:33.015Z,11.56
2018-09-27T21:59:01.653Z,11.43
2018-09-27T22:01:30.226Z,11.38
2018-09-27T22:03:58.786Z,11.31
2018-09-27T22:06:27.610Z,11.27
2018-09-27T22:08:56.153Z,11.25
2018-09-27T22:11:25.177Z,11.28
2018-09-27T22:13:54.789Z,11.27
2018-09-27T22:16:23.330Z,11.33
2018-09-27T22:18:51.913Z,11.24
2018-09-27T22:21:20.438Z,11.21
2018-09-27T22:23:48.985Z,11.13
2018-09-27T22:26:17.519Z,11.07
2018-09-27T22:28:46.081Z,11.00
2018-09-27T22:31:14.642Z,10.92
2018-09-27T22:33:43.185Z,10.95
2018-09-27T22:36:11.720Z,10.87
2018-09-27T22:38:40.280Z,10.73
2018-09-27T22:41:08.813Z,10.48
2018-09-27T22:43:37.363Z,10.47
2018-09-27T22:46:06.086Z,10.47
2018-09-27T22:48:34.655Z,10.42
2018-09-27T22:51:03.187Z,10.46
2018-09-27T22:53:32.031Z,10.31
2018-09-27T22:56:00.554Z,10.29
2018-09-27T22:58:29.126Z,10.30
2018-09-27T23:00:57.654Z,10.30
2018-09-27T23:03:26.222Z,10.27
2018-09-27T23:05:54.759Z,10.25
2018-09-27T23:08:23.333Z,10.13
2018-09-27T23:10:51.854Z,10.07
2018-09-27T23:13:51.015Z,9.89
2018-09-27T23:16:19.534Z,9.86
2018-09-27T23:18:48.093Z,9.84
2018-09-27T23:21:16.837Z,9.86
2018-09-27T23:23:45.371Z,9.61
2018-09-27T23:26:13.882Z,9.54
2018-09-27T23:28:42.649Z,9.52
2018-09-27T23:31:11.173Z,9.43
2018-09-27T23:33:39.739Z,9.48
2018-09-27T23:36:08.274Z,9.49
2018-09-27T23:38:36.842Z,9.43
2018-09-27T23:41:05.401Z,9.51
2018-09-27T23:43:33.921Z,9.28
2018-09-27T23:46:02.459Z,9.26
2018-09-27T23:48:31.018Z,9.19
2018-09-27T23:50:59.539Z,9.10
2018-09-27T23:53:28.084Z,9.20
2018-09-27T23:55:56.597Z,9.18
2018-09-27T23:58:25.316Z,9.02
